Main page
METAR-TAF:

METAR-TAF

Airports :

Aérodrome de Dax - Seyresse

Dax, France

latitude: 43-41N, longitude: 001-04W, elevation: 32 m

Current weather observation

The report was made 26 minutes ago, at 02:00 UTC
Wind 4 kt from the Northeast, varying between North and East/Northeast
Temperature 20°C
Humidity 88%
Pressure 1013 hPa
Visibility 10 km or more

METAR: LFBY 150200Z AUTO 05004KT 010V070 9999 // NSC 20/18 Q1013

Time: 04:26 (02:26 UTC)


TAF: missing

Weather observations and forecasts of more than 4000 airports (METAR and TAF reports).

The available stations are represented by yellow and red dots on the map.

Hover mouse over dot to see the name of the station.

Then click to see weather observations and forecasts.

To change the map : click on the green buttons with a black cross to zoom in, on the green button with a dash to zoom out, or on the green arrows for adjacent maps.


METAR-TAF: